Time;durP1;ratioP1;P1;durP2;ratioP2;P2;SDS_P1;SDS_P2;PMS_P1;PMS_P2;Temp;Humidity;BMP_temperature;BMP_pressure;BME280_temperature;BME280_humidity;BME280_pressure;Samples;Min_cycle;Max_cycle;Signal;HPM_P1;HPM_P2
2023/07/27 00:02:57;;;;;;;2.87;2.13;;;;;;;-145.68;83.71;73667.69;10214405;29;20215;-68
2023/07/27 00:07:57;;;;;;;3.17;2.57;;;;;;;-145.68;84.67;73659.69;10213889;29;20328;-68
2023/07/27 00:12:57;;;;;;;4.30;2.30;;;;;;;-145.68;86.20;73681.69;10214135;29;20236;-68
2023/07/27 00:17:58;;;;;;;4.70;2.30;;;;;;;-145.68;88.17;73679.69;10213554;29;20227;-68
2023/07/27 00:22:58;;;;;;;3.47;2.53;;;;;;;-145.68;90.06;73689.69;10213660;29;20219;-69
2023/07/27 00:27:58;;;;;;;3.17;2.63;;;;;;;-145.68;91.47;73679.69;10213282;29;20311;-68
2023/07/27 00:32:59;;;;;;;3.28;2.70;;;;;;;-145.68;93.97;73717.66;10212360;29;20227;-68
2023/07/27 00:37:59;;;;;;;3.97;2.63;;;;;;;-145.68;95.56;73707.69;10212922;29;20327;-68
2023/07/27 00:43:00;;;;;;;3.97;2.73;;;;;;;-145.68;96.03;73703.69;10195643;29;20306;-68
2023/07/27 00:48:00;;;;;;;2.73;2.43;;;;;;;-145.68;96.49;73703.69;10212517;29;20235;-69
2023/07/27 00:53:02;;;;;;;6.53;3.20;;;;;;;-145.68;98.72;73715.66;10212456;29;20231;-68
2023/07/27 00:58:02;;;;;;;3.30;2.90;;;;;;;-145.68;99.01;73723.66;10194984;29;20323;-68
2023/07/27 01:03:04;;;;;;;3.90;2.57;;;;;;;-145.68;100.00;73733.66;10212219;29;20218;-68
2023/07/27 01:08:06;;;;;;;2.93;2.63;;;;;;;-145.68;100.00;73725.66;10194624;29;20224;-68
2023/07/27 01:13:13;;;;;;;3.60;2.50;;;;;;;-145.68;100.00;73733.66;10194742;29;20227;-68
2023/07/27 01:18:23;;;;;;;3.00;2.70;;;;;;;-145.68;100.00;73741.66;10194715;29;20224;-69
2023/07/27 01:23:54;;;;;;;3.50;2.60;;;;;;;-145.68;100.00;73743.66;10194526;29;20275;-68
2023/07/27 01:29:06;;;;;;;3.20;2.60;;;;;;;-145.68;100.00;73763.66;10194356;29;20220;-68
2023/07/27 01:34:14;;;;;;;3.63;3.13;;;;;;;-145.68;100.00;73769.63;10194433;29;20267;-68
2023/07/27 01:39:15;;;;;;;2.77;2.53;;;;;;;-145.68;100.00;73775.63;10193848;29;20752;-68
2023/07/27 01:44:16;;;;;;;5.30;2.97;;;;;;;-145.68;100.00;73803.63;10193732;29;20314;-68
2023/07/27 01:49:17;;;;;;;3.23;2.93;;;;;;;-145.68;100.00;73817.63;10193787;29;20271;-68
2023/07/27 01:54:18;;;;;;;3.70;2.90;;;;;;;-145.68;100.00;73799.63;10210476;29;20260;-68
2023/07/27 01:59:20;;;;;;;7.83;3.00;;;;;;;-145.68;100.00;73807.63;10178172;29;20792;-67
2023/07/27 02:04:20;;;;;;;4.10;3.30;;;;;;;-145.68;100.00;73817.63;10177526;29;20208;-67
2023/07/27 02:09:21;;;;;;;5.05;3.70;;;;;;;-145.68;100.00;73805.63;10193172;29;20294;-68
2023/07/27 02:14:28;;;;;;;3.37;3.07;;;;;;;-145.68;100.00;73805.63;10210400;29;20220;-68
2023/07/27 02:19:31;;;;;;;5.13;3.77;;;;;;;-145.68;100.00;73795.63;10209965;29;20600;-68
2023/07/27 02:24:32;;;;;;;7.33;3.20;;;;;;;-145.68;100.00;73797.63;10193333;29;20215;-67
2023/07/27 02:29:32;;;;;;;4.83;3.93;;;;;;;-145.68;100.00;73789.63;10192654;29;20243;-68
2023/07/27 02:34:33;;;;;;;4.73;3.83;;;;;;;-145.68;100.00;73795.63;10192870;29;20204;-67
2023/07/27 02:39:34;;;;;;;6.07;3.93;;;;;;;-145.68;100.00;73783.63;10192689;29;20239;-67
2023/07/27 02:44:34;;;;;;;7.20;3.63;;;;;;;-145.68;100.00;73795.63;10192638;29;20569;-68
2023/07/27 02:49:35;;;;;;;4.60;3.80;;;;;;;-145.68;100.00;73807.63;10192594;29;20231;-68
2023/07/27 02:54:35;;;;;;;5.50;3.70;;;;;;;-145.68;100.00;73827.59;10195089;29;20295;-67
2023/07/27 02:59:36;;;;;;;6.00;3.97;;;;;;;-145.68;100.00;73833.59;10199737;29;20310;-67
2023/07/27 03:04:38;;;;;;;6.67;3.90;;;;;;;-145.68;100.00;73829.59;10216657;29;20223;-67
2023/07/27 03:09:42;;;;;;;5.30;3.77;;;;;;;-145.68;100.00;73837.59;10199113;29;20246;-67
2023/07/27 03:14:42;;;;;;;4.03;3.40;;;;;;;-145.68;100.00;73839.59;10216539;29;20291;-67
2023/07/27 03:19:42;;;;;;;4.77;3.67;;;;;;;-145.68;100.00;73847.59;10215803;29;20228;-67
2023/07/27 03:24:43;;;;;;;6.00;3.73;;;;;;;-145.68;100.00;73863.59;10198979;29;20211;-67
2023/07/27 03:29:43;;;;;;;5.00;3.70;;;;;;;-145.68;100.00;73863.59;10198335;29;20661;-67
2023/07/27 03:34:44;;;;;;;5.07;3.20;;;;;;;-145.68;100.00;73873.59;10215391;29;20227;-67
2023/07/27 03:39:45;;;;;;;4.40;3.67;;;;;;;-145.68;100.00;73879.59;10182588;29;20219;-67
2023/07/27 03:44:45;;;;;;;4.70;3.67;;;;;;;-145.68;100.00;73877.59;10197760;29;20230;-67
2023/07/27 03:49:46;;;;;;;4.53;4.03;;;;;;;-145.68;100.00;73881.59;10214995;29;20318;-67
2023/07/27 03:54:46;;;;;;;5.63;4.03;;;;;;;-145.68;100.00;73879.59;10214660;29;20215;-67
2023/07/27 03:59:47;;;;;;;5.43;3.80;;;;;;;-145.68;100.00;73859.59;10197230;29;20219;-67
2023/07/27 04:04:47;;;;;;;5.07;3.90;;;;;;;-145.68;100.00;73847.59;10196306;29;20308;-67
2023/07/27 04:09:48;;;;;;;6.53;4.37;;;;;;;-145.68;100.00;73835.59;10213892;29;20279;-66
2023/07/27 04:14:48;;;;;;;5.10;3.73;;;;;;;-145.68;100.00;73813.63;10214105;29;20682;-67
2023/07/27 04:19:49;;;;;;;7.23;4.47;;;;;;;-145.68;100.00;73801.63;10196456;29;20275;-67
2023/07/27 04:24:50;;;;;;;5.57;4.07;;;;;;;-145.68;100.00;73781.63;10213940;29;20200;-67
2023/07/27 04:29:50;;;;;;;6.40;4.00;;;;;;;-145.68;100.00;73741.66;10213307;29;20236;-67
2023/07/27 04:34:51;;;;;;;4.30;2.97;;;;;;;-145.68;100.00;73713.66;10213126;29;20823;-67
2023/07/27 04:39:51;;;;;;;5.53;3.17;;;;;;;-145.68;100.00;73675.69;10212877;29;20584;-67
2023/07/27 04:44:52;;;;;;;4.55;3.05;;;;;;;-145.68;98.44;73625.72;10212735;29;20208;-67
2023/07/27 04:49:52;;;;;;;8.40;3.27;;;;;;;-145.68;94.17;73577.75;10195446;29;20318;-67
2023/07/27 04:54:52;;;;;;;6.10;3.08;;;;;;;-145.68;87.53;73513.78;10212542;29;20199;-67
2023/07/27 04:59:53;;;;;;;5.03;2.70;;;;;;;-145.68;84.02;73479.81;10212191;29;20311;-67
2023/07/27 05:04:53;;;;;;;3.10;2.60;;;;;;;-145.68;81.54;73447.81;10212210;29;20750;-67
2023/07/27 05:09:53;;;;;;;6.28;2.90;;;;;;;-145.68;79.23;73411.84;10211695;29;20781;-67
2023/07/27 05:14:54;;;;;;;3.75;2.70;;;;;;;-145.68;76.29;73375.88;10211739;29;20683;-67
2023/07/27 05:19:54;;;;;;;3.97;2.65;;;;;;;-145.68;73.55;73355.88;10211496;29;20726;-67
2023/07/27 05:24:55;;;;;;;3.08;2.30;;;;;;;-145.68;73.41;73331.91;10209836;29;20625;-67
2023/07/27 05:29:55;;;;;;;3.47;2.75;;;;;;;-145.68;72.76;73287.94;10211174;29;20247;-67
2023/07/27 05:34:56;;;;;;;7.38;2.33;;;;;;;-145.68;70.19;73243.97;10209741;29;20691;-67
2023/07/27 05:39:56;;;;;;;5.65;2.70;;;;;;;-145.68;67.50;73215.97;10209812;29;20694;-67
2023/07/27 05:44:56;;;;;;;5.95;2.63;;;;;;;-145.68;66.33;73150.03;10208411;29;20287;-68
2023/07/27 05:49:58;;;;;;;3.88;2.65;;;;;;;-145.68;63.78;73114.03;10208950;29;20326;-68
2023/07/27 05:54:58;;;;;;;4.90;2.30;;;;;;;-145.68;62.62;73088.06;10210909;29;20274;-68
2023/07/27 05:59:58;;;;;;;7.13;2.28;;;;;;;-145.68;62.78;73138.03;10209252;29;20298;-68
2023/07/27 06:04:59;;;;;;;3.97;2.40;;;;;;;-145.68;62.47;73114.03;10209616;29;20299;-68
2023/07/27 06:09:59;;;;;;;3.80;2.58;;;;;;;-145.68;60.98;73074.06;10209426;29;20236;-67
2023/07/27 06:15:00;;;;;;;8.85;2.58;;;;;;;-145.68;60.22;73062.09;10209539;29;20345;-67
2023/07/27 06:20:00;;;;;;;3.85;2.38;;;;;;;-145.68;59.77;73074.06;10210455;29;20236;-67
2023/07/27 06:25:01;;;;;;;4.95;2.70;;;;;;;-145.68;59.29;73046.09;10209897;29;20216;-67
2023/07/27 06:30:01;;;;;;;2.97;2.35;;;;;;;-145.68;58.57;73006.13;10213900;29;20246;-67
2023/07/27 06:35:01;;;;;;;5.50;2.40;;;;;;;-145.68;56.62;72928.19;10217529;29;20211;-67
2023/07/27 06:40:03;;;;;;;3.72;2.17;;;;;;;-145.68;57.48;73002.13;10217506;29;20219;-68
2023/07/27 06:45:03;;;;;;;4.20;2.22;;;;;;;-145.68;55.71;72906.19;10217631;29;20208;-68
2023/07/27 06:50:04;;;;;;;2.83;2.20;;;;;;;-145.68;55.14;72788.28;10216740;29;20255;-68
2023/07/27 06:55:06;;;;;;;3.17;2.45;;;;;;;-145.68;51.50;72760.31;10217133;29;20266;-68
2023/07/27 07:00:07;;;;;;;2.55;2.35;;;;;;;-145.68;51.49;72750.31;10216536;29;20227;-68
2023/07/27 07:05:08;;;;;;;5.47;2.10;;;;;;;-145.68;51.44;72754.31;10216497;29;20629;-67
2023/07/27 07:10:09;;;;;;;4.95;2.83;;;;;;;-145.68;51.62;72904.19;10216327;29;20244;-68
2023/07/27 07:15:10;;;;;;;3.20;2.50;;;;;;;-145.68;51.68;72856.22;10216077;29;20207;-68
2023/07/27 07:20:10;;;;;;;3.40;2.33;;;;;;;-145.68;52.22;72824.25;10216146;29;20243;-68
2023/07/27 07:25:11;;;;;;;5.93;2.55;;;;;;;-145.68;51.05;72794.28;10198584;29;20713;-67
2023/07/27 07:30:11;;;;;;;2.42;2.05;;;;;;;-145.68;50.58;72732.34;10215541;29;20246;-67
2023/07/27 07:35:12;;;;;;;3.42;2.20;;;;;;;-145.68;51.64;72734.31;10215457;29;20345;-68
2023/07/27 07:40:12;;;;;;;2.85;1.90;;;;;;;-145.68;50.98;72750.31;10214882;29;20286;-68
2023/07/27 07:45:12;;;;;;;3.72;2.50;;;;;;;-145.68;50.11;72712.34;10215146;29;20200;-68
2023/07/27 07:50:13;;;;;;;4.25;2.45;;;;;;;-145.68;50.28;72758.31;10214590;29;20248;-68
2023/07/27 07:55:13;;;;;;;4.53;2.80;;;;;;;-145.68;50.91;72764.31;10214793;29;20212;-68
2023/07/27 08:00:14;;;;;;;4.13;2.50;;;;;;;-145.68;50.82;72744.31;10214462;29;20240;-68
2023/07/27 08:05:15;;;;;;;3.90;1.98;;;;;;;-145.68;49.15;72618.44;10214238;29;20207;-68
2023/07/27 08:10:15;;;;;;;3.47;2.42;;;;;;;-145.68;49.98;72706.34;10212816;29;20741;-67
2023/07/27 08:15:17;;;;;;;3.00;2.10;;;;;;;-145.68;49.73;72628.41;10213795;29;20667;-67
2023/07/27 08:20:17;;;;;;;4.07;2.67;;;;;;;-145.68;48.88;72642.41;10213841;29;20236;-67
2023/07/27 08:25:18;;;;;;;5.13;2.20;;;;;;;-145.68;48.93;72658.38;10213497;29;20714;-67
2023/07/27 08:30:18;;;;;;;2.55;2.30;;;;;;;-145.68;48.57;72730.34;10213344;29;20239;-66
2023/07/27 08:35:18;;;;;;;3.00;2.25;;;;;;;-145.68;48.96;72682.38;10213290;29;20263;-66
2023/07/27 08:40:19;;;;;;;5.28;2.30;;;;;;;-145.68;47.92;72674.38;10212840;29;20315;-66
2023/07/27 08:45:21;;;;;;;4.55;2.35;;;;;;;-145.68;48.93;72700.34;10212817;29;20220;-67
2023/07/27 08:50:22;;;;;;;4.70;2.10;;;;;;;-145.68;47.72;72592.44;10212514;29;20239;-67
2023/07/27 08:55:22;;;;;;;4.32;2.10;;;;;;;-145.68;47.65;72544.50;10195019;29;20268;-68
2023/07/27 09:00:22;;;;;;;3.17;2.20;;;;;;;-145.68;47.02;72576.47;10195200;29;20239;-71
2023/07/27 09:05:36;;;;;;;6.00;1.95;;;;;;;-145.68;45.94;72540.50;10212053;29;20212;-68
2023/07/27 09:10:41;;;;;;;7.88;2.40;;;;;;;-145.68;46.49;72564.47;10194876;29;20282;-68
2023/07/27 09:15:44;;;;;;;3.58;2.10;;;;;;;-145.68;45.76;72464.56;10211544;29;20271;-68
2023/07/27 09:20:44;;;;;;;3.47;2.28;;;;;;;-145.68;47.88;72520.50;10211678;29;20223;-67
2023/07/27 09:25:57;;;;;;;7.20;2.30;;;;;;;-145.68;47.07;72552.47;10211328;29;20207;-66
2023/07/27 09:30:59;;;;;;;2.53;2.15;;;;;;;-145.68;48.39;72624.41;10211087;29;20239;-67
2023/07/27 09:36:01;;;;;;;4.38;2.53;;;;;;;-145.68;49.91;72644.41;10211135;29;20225;-67
2023/07/27 09:41:08;;;;;;;3.92;2.42;;;;;;;-145.68;50.11;72612.44;10210696;29;20209;-68
2023/07/27 09:46:08;;;;;;;5.30;2.50;;;;;;;-145.68;50.09;72608.44;10210724;29;20792;-68
2023/07/27 09:51:09;;;;;;;3.17;2.10;;;;;;;-145.68;50.56;72650.41;10210675;29;20304;-66
2023/07/27 09:56:11;;;;;;;2.40;2.20;;;;;;;-145.68;52.28;72708.34;10193568;29;20242;-66
2023/07/27 10:01:11;;;;;;;3.80;2.58;;;;;;;-145.68;51.89;72670.38;10210705;29;20246;-67
2023/07/27 10:06:15;;;;;;;2.95;2.25;;;;;;;-145.68;52.59;72730.34;10216046;29;20810;-67
2023/07/27 10:11:16;;;;;;;7.13;2.40;;;;;;;-145.68;52.64;72724.34;10218503;29;20275;-66
2023/07/27 10:16:17;;;;;;;4.13;2.45;;;;;;;-145.68;53.69;72766.31;10218044;29;20311;-67
2023/07/27 10:21:21;;;;;;;3.35;2.22;;;;;;;-145.68;53.74;72794.28;10218358;29;20675;-67
2023/07/27 10:26:46;;;;;;;3.53;2.40;;;;;;;-145.68;53.49;72780.28;10217872;29;20243;-67
2023/07/27 10:32:01;;;;;;;4.32;1.98;;;;;;;-145.68;52.90;72714.34;10217854;29;20255;-67
2023/07/27 10:37:03;;;;;;;2.83;2.40;;;;;;;-145.68;52.12;72682.38;10217303;29;20255;-68
2023/07/27 10:42:05;;;;;;;4.95;2.40;;;;;;;-145.68;50.22;72596.44;10217611;29;20204;-68
2023/07/27 10:52:08;;;;;;;3.08;2.00;;;;;;;-145.68;47.15;72594.44;10213998;29;20609;-64
2023/07/27 10:57:10;;;;;;;3.97;2.60;;;;;;;-145.68;47.63;72552.47;10217136;29;20211;-65
2023/07/27 11:02:23;;;;;;;2.75;1.92;;;;;;;-145.68;47.67;72538.50;10216636;29;20255;-64
2023/07/27 11:07:31;;;;;;;6.50;2.15;;;;;;;-145.68;48.40;72556.47;10216443;29;20235;-64
2023/07/27 11:12:31;;;;;;;4.13;1.95;;;;;;;-145.68;48.12;72538.50;10216241;29;20242;-63
2023/07/27 11:17:34;;;;;;;2.97;1.88;;;;;;;-145.68;48.38;72544.50;10215895;29;20714;-63
2023/07/27 11:22:35;;;;;;;3.10;2.00;;;;;;;-145.68;47.66;72506.50;10215905;29;20218;-65
2023/07/27 11:27:37;;;;;;;5.20;2.25;;;;;;;-145.68;48.05;72466.56;10215711;29;20748;-66
2023/07/27 11:32:38;;;;;;;4.30;2.00;;;;;;;-145.68;48.12;72508.50;10215607;29;20235;-66
2023/07/27 11:37:38;;;;;;;2.65;2.10;;;;;;;-145.68;51.13;72610.44;10215239;29;20253;-66
2023/07/27 11:42:38;;;;;;;3.58;2.20;;;;;;;-145.68;57.78;72708.34;10215405;29;20215;-67
2023/07/27 11:47:39;;;;;;;2.75;2.30;;;;;;;-145.68;60.16;72696.34;10214891;29;20224;-66
2023/07/27 11:52:40;;;;;;;4.35;2.20;;;;;;;-145.68;58.85;72664.38;10214739;29;20231;-67
2023/07/27 11:57:40;;;;;;;5.70;2.40;;;;;;;-145.68;59.52;72700.34;10214597;29;20233;-67
2023/07/27 12:02:48;;;;;;;4.53;2.25;;;;;;;-145.68;58.97;72724.34;10214393;29;20303;-66
2023/07/27 12:07:52;;;;;;;4.53;3.03;;;;;;;-145.68;60.03;72702.34;10214367;29;20294;-66
2023/07/27 12:13:06;;;;;;;4.97;2.67;;;;;;;-145.68;59.60;72704.34;10214145;29;20851;-66
2023/07/27 12:18:07;;;;;;;4.80;2.03;;;;;;;-145.68;56.58;72668.38;10214174;29;20282;-65
2023/07/27 12:23:07;;;;;;;4.10;2.50;;;;;;;-145.68;56.66;72672.38;10213823;29;20363;-65
2023/07/27 12:28:08;;;;;;;4.55;2.42;;;;;;;-145.68;56.74;72636.41;10212708;29;20272;-66
2023/07/27 12:33:08;;;;;;;2.90;2.35;;;;;;;-145.68;56.35;72656.41;10213594;29;20240;-65
2023/07/27 12:38:08;;;;;;;3.90;2.97;;;;;;;-145.68;57.05;72694.38;10213258;29;20238;-65
2023/07/27 12:43:09;;;;;;;3.78;2.47;;;;;;;-145.68;57.31;72678.38;10212916;29;20212;-65
2023/07/27 12:48:09;;;;;;;4.60;2.50;;;;;;;-145.68;58.55;72724.34;10212912;29;20231;-66
2023/07/27 12:53:10;;;;;;;5.47;2.47;;;;;;;-145.68;63.79;72772.31;10212422;29;20267;-66
2023/07/27 12:58:10;;;;;;;3.22;2.92;;;;;;;-145.68;65.55;72780.28;10212559;29;20228;-65
2023/07/27 13:03:11;;;;;;;5.28;2.88;;;;;;;-145.68;68.50;72778.28;10211952;29;20997;-66
2023/07/27 13:08:11;;;;;;;2.70;2.30;;;;;;;-145.68;68.71;72794.28;10212233;29;20604;-66
2023/07/27 13:13:12;;;;;;;3.33;2.53;;;;;;;-145.68;69.58;72796.28;10211800;29;20246;-65
2023/07/27 13:18:12;;;;;;;4.63;2.88;;;;;;;-145.68;75.05;72814.28;10211240;29;20227;-66
2023/07/27 13:23:13;;;;;;;6.25;3.22;;;;;;;-145.68;84.90;72842.25;10212109;29;20223;-68
2023/07/27 13:28:13;;;;;;;4.68;3.47;;;;;;;-145.68;88.33;72842.25;10211178;29;20231;-67
2023/07/27 13:33:13;;;;;;;3.95;3.30;;;;;;;-145.68;91.60;72852.25;10211449;29;20318;-67
2023/07/27 13:38:14;;;;;;;4.63;3.40;;;;;;;-145.68;97.85;72828.25;10210806;29;20240;-67
2023/07/27 13:43:14;;;;;;;5.07;2.78;;;;;;;-145.68;92.58;72780.28;10211084;29;20219;-66
2023/07/27 13:48:15;;;;;;;4.13;2.45;;;;;;;-145.68;83.17;72772.31;10211047;29;20236;-66
2023/07/27 13:53:15;;;;;;;5.55;2.92;;;;;;;-145.68;81.84;72760.31;10210439;29;20722;-66
2023/07/27 13:58:16;;;;;;;7.60;3.35;;;;;;;-145.68;79.95;72716.34;10210758;29;20227;-66
2023/07/27 14:03:16;;;;;;;3.00;2.33;;;;;;;-145.68;73.81;72740.31;10210398;29;20686;-65
2023/07/27 14:08:17;;;;;;;4.95;2.22;;;;;;;-145.68;72.40;72744.31;10210494;29;20319;-65
2023/07/27 14:13:17;;;;;;;3.30;2.25;;;;;;;-145.68;70.31;72754.31;10210432;29;20235;-66
2023/07/27 14:18:18;;;;;;;3.83;2.65;;;;;;;-145.68;70.79;72782.28;10210092;29;20228;-66
2023/07/27 14:23:18;;;;;;;2.95;2.35;;;;;;;-145.68;75.69;72828.25;10210316;29;20208;-66
2023/07/27 14:28:18;;;;;;;6.70;2.67;;;;;;;-145.68;79.36;72832.25;10209983;29;20227;-65
2023/07/27 14:33:20;;;;;;;3.20;2.25;;;;;;;-145.68;80.29;72824.25;10210111;29;20248;-65
2023/07/27 14:38:20;;;;;;;3.58;2.50;;;;;;;-145.68;81.99;72786.28;10209851;29;20231;-64
2023/07/27 14:43:20;;;;;;;2.65;2.28;;;;;;;-145.68;81.12;72776.28;10209883;29;20218;-65
2023/07/27 14:48:21;;;;;;;3.38;2.30;;;;;;;-145.68;83.25;72808.28;10209853;29;20283;-65
2023/07/27 14:53:21;;;;;;;5.20;2.85;;;;;;;-145.68;84.37;72784.28;10216530;29;20236;-64
2023/07/27 14:58:21;;;;;;;3.80;2.30;;;;;;;-145.68;85.07;72774.31;10216916;29;20305;-67
2023/07/27 15:03:22;;;;;;;2.47;2.28;;;;;;;-145.68;80.17;72744.31;10216804;29;20352;-67
2023/07/27 15:08:22;;;;;;;3.13;2.72;;;;;;;-145.68;78.78;72742.31;10216487;29;20246;-66
2023/07/27 15:13:23;;;;;;;2.35;1.92;;;;;;;-145.68;79.57;72736.31;10216187;29;20235;-66
2023/07/27 15:18:23;;;;;;;3.90;2.20;;;;;;;-145.68;76.22;72648.41;10215820;29;20287;-66
2023/07/27 15:23:24;;;;;;;5.35;2.10;;;;;;;-145.68;73.20;72612.44;10215919;29;20207;-66
2023/07/27 15:28:25;;;;;;;5.53;2.50;;;;;;;-145.68;72.18;72606.44;10215842;29;20239;-66
2023/07/27 15:33:26;;;;;;;2.92;1.90;;;;;;;-145.68;70.73;72608.44;10215502;29;20773;-66
2023/07/27 15:38:26;;;;;;;2.58;2.03;;;;;;;-145.68;69.53;72584.44;10215424;29;20315;-66
2023/07/27 15:43:27;;;;;;;6.85;2.55;;;;;;;-145.68;67.39;72608.44;10215276;29;20223;-66
2023/07/27 15:48:27;;;;;;;2.00;1.80;;;;;;;-145.68;67.41;72578.47;10215029;29;20250;-66
2023/07/27 15:53:27;;;;;;;2.05;1.45;;;;;;;-145.68;67.56;72592.44;10214816;29;20322;-66
2023/07/27 15:58:28;;;;;;;4.10;2.15;;;;;;;-145.68;67.43;72554.47;10214602;29;20239;-66
2023/07/27 16:03:28;;;;;;;3.72;2.17;;;;;;;-145.68;67.75;72576.47;10214795;29;20219;-66
2023/07/27 16:08:28;;;;;;;2.83;2.45;;;;;;;-145.68;68.27;72586.44;10213939;29;20240;-66
2023/07/27 16:13:29;;;;;;;2.05;1.85;;;;;;;-145.68;71.03;72598.44;10214241;29;20235;-66
2023/07/27 16:18:29;;;;;;;3.25;2.05;;;;;;;-145.68;71.85;72596.44;10213683;29;20239;-66
2023/07/27 16:23:33;;;;;;;3.97;3.00;;;;;;;-145.68;72.35;72616.44;10213652;29;20211;-65
2023/07/27 16:28:34;;;;;;;3.45;1.92;;;;;;;-145.68;72.40;72594.44;10213619;29;20623;-66
2023/07/27 16:33:34;;;;;;;2.45;2.20;;;;;;;-145.68;72.79;72592.44;10213033;29;20612;-66
2023/07/27 16:38:35;;;;;;;4.18;2.05;;;;;;;-145.68;73.65;72596.44;10213203;29;20228;-66
2023/07/27 16:43:36;;;;;;;2.78;2.05;;;;;;;-145.68;73.16;72590.44;10212904;29;20246;-66
2023/07/27 16:48:37;;;;;;;3.50;1.90;;;;;;;-145.68;72.91;72592.44;10243984;23;20795;-67
2023/07/27 16:53:37;;;;;;;2.30;1.77;;;;;;;-145.68;72.66;72582.44;10251633;29;20231;-67
2023/07/27 16:58:38;;;;;;;2.83;1.80;;;;;;;-145.68;74.36;72600.44;10241830;29;20227;-67
2023/07/27 17:03:38;;;;;;;2.03;1.63;;;;;;;-145.68;76.07;72614.44;10212334;29;20282;-68
2023/07/27 17:08:38;;;;;;;2.33;1.90;;;;;;;-145.68;77.24;72618.44;10211701;29;20243;-67
2023/07/27 17:13:39;;;;;;;1.73;1.48;;;;;;;-145.68;79.66;72624.41;10211659;29;20243;-69
2023/07/27 17:18:40;;;;;;;1.30;1.20;;;;;;;-145.68;81.94;72642.41;10211670;29;20235;-68
2023/07/27 17:23:41;;;;;;;2.85;1.48;;;;;;;-145.68;83.89;72654.41;10211137;29;20792;-69
2023/07/27 17:28:41;;;;;;;1.83;1.40;;;;;;;-145.68;85.17;72660.38;10211214;29;20334;-69
2023/07/27 17:33:42;;;;;;;1.50;1.27;;;;;;;-145.68;87.19;72656.41;10210705;29;20707;-68
2023/07/27 17:38:42;;;;;;;1.65;1.27;;;;;;;-145.68;97.76;72734.31;10211103;29;20640;-68
2023/07/27 17:43:43;;;;;;;3.28;1.30;;;;;;;-145.68;100.00;72738.31;10210761;29;20230;-68
2023/07/27 17:48:43;;;;;;;2.08;1.27;;;;;;;-145.68;100.00;72770.31;10210543;29;20372;-68
2023/07/27 17:53:43;;;;;;;1.00;1.00;;;;;;;-145.68;100.00;72764.31;10210679;29;20745;-69
2023/07/27 17:58:44;;;;;;;1.13;1.08;;;;;;;-145.68;100.00;72780.28;10210314;29;20716;-68
2023/07/27 18:03:44;;;;;;;1.27;1.15;;;;;;;-145.68;100.00;72796.28;10210571;29;20582;-68
2023/07/27 18:08:45;;;;;;;2.35;1.50;;;;;;;-145.68;100.00;72790.28;10210412;29;20731;-68
2023/07/27 18:13:45;;;;;;;1.65;1.13;;;;;;;-145.68;100.00;72782.28;10210347;29;20242;-68
2023/07/27 18:18:46;;;;;;;2.13;1.20;;;;;;;-145.68;100.00;72766.31;10210207;29;20276;-69
2023/07/27 18:23:47;;;;;;;1.60;1.00;;;;;;;-145.68;100.00;72770.31;10210352;29;20306;-69
2023/07/27 18:28:48;;;;;;;1.33;0.90;;;;;;;-145.68;100.00;72752.31;10218049;29;20247;-69
2023/07/27 18:33:49;;;;;;;1.23;0.90;;;;;;;-145.68;100.00;72748.31;10217540;29;20246;-69
2023/07/27 18:38:49;;;;;;;0.85;0.85;;;;;;;-145.68;100.00;72744.31;10217601;29;20270;-69
2023/07/27 18:43:50;;;;;;;2.17;0.85;;;;;;;-145.68;100.00;72748.31;10217321;29;20214;-69
2023/07/27 18:48:50;;;;;;;1.40;0.90;;;;;;;-145.68;100.00;72746.31;10217085;29;20633;-69
2023/07/27 18:53:52;;;;;;;0.77;0.60;;;;;;;-145.68;100.00;72752.31;10216941;29;20267;-69
2023/07/27 18:58:52;;;;;;;0.73;0.73;;;;;;;-145.68;100.00;72766.31;10216782;29;20228;-68
2023/07/27 19:03:52;;;;;;;1.27;0.63;;;;;;;-145.68;100.00;72766.31;10216814;29;20215;-68
2023/07/27 19:08:53;;;;;;;0.80;0.80;;;;;;;-145.68;100.00;72790.28;10216568;29;20278;-69
2023/07/27 19:13:53;;;;;;;0.77;0.77;;;;;;;-145.68;100.00;72792.28;10216115;29;20737;-68
2023/07/27 19:18:53;;;;;;;1.92;1.00;;;;;;;-145.68;100.00;72816.25;10215970;29;20710;-69
2023/07/27 19:23:54;;;;;;;1.10;1.00;;;;;;;-145.68;100.00;72832.25;10215996;29;20679;-69
2023/07/27 19:28:54;;;;;;;4.57;0.95;;;;;;;-145.68;100.00;72844.25;10215511;29;20231;-68
2023/07/27 19:33:55;;;;;;;1.17;1.10;;;;;;;-145.68;100.00;72850.25;10214921;29;20734;-68
2023/07/27 19:38:58;;;;;;;0.90;0.90;;;;;;;-145.68;100.00;72860.22;10214331;29;20247;-68
2023/07/27 19:43:58;;;;;;;0.70;0.70;;;;;;;-145.68;100.00;72856.22;10215119;29;20694;-68
2023/07/27 19:48:59;;;;;;;1.15;1.00;;;;;;;-145.68;100.00;72870.22;10214964;29;20239;-68
2023/07/27 19:53:59;;;;;;;0.98;0.98;;;;;;;-145.68;100.00;72868.22;10214781;29;20291;-68
2023/07/27 19:58:59;;;;;;;1.73;0.80;;;;;;;-145.68;100.00;72852.25;10214766;29;20260;-67
2023/07/27 20:04:00;;;;;;;1.25;0.82;;;;;;;-145.68;100.00;72852.25;10213226;29;20219;-67
2023/07/27 20:09:00;;;;;;;0.70;0.70;;;;;;;-145.68;100.00;72832.25;10213771;29;20266;-68
2023/07/27 20:14:00;;;;;;;0.70;0.70;;;;;;;-145.68;100.00;72820.25;10213952;29;20240;-68
2023/07/27 20:19:01;;;;;;;0.77;0.77;;;;;;;-145.68;100.00;72808.28;10212157;29;20236;-68
2023/07/27 20:24:01;;;;;;;1.48;0.70;;;;;;;-145.68;100.00;72782.28;10213731;29;20295;-67
2023/07/27 20:29:02;;;;;;;0.70;0.70;;;;;;;-145.68;100.00;72782.28;10213288;29;20231;-68
2023/07/27 20:34:02;;;;;;;0.60;0.60;;;;;;;-145.68;100.00;72780.28;10212248;29;20367;-68
2023/07/27 20:39:03;;;;;;;0.63;0.63;;;;;;;-145.68;100.00;72778.28;10211106;29;20247;-68
2023/07/27 20:44:03;;;;;;;0.50;0.50;;;;;;;-145.68;100.00;72760.31;10211592;29;20307;-68
2023/07/27 20:49:03;;;;;;;0.50;0.50;;;;;;;-145.68;100.00;72750.31;10209736;29;20290;-68
2023/07/27 20:54:04;;;;;;;0.60;0.60;;;;;;;-145.68;100.00;72744.31;10210931;29;20240;-68
2023/07/27 20:59:04;;;;;;;1.05;0.60;;;;;;;-145.68;100.00;72760.31;10211662;29;20270;-67
2023/07/27 21:04:05;;;;;;;0.60;0.60;;;;;;;-145.68;100.00;72774.31;10211074;29;20358;-66
2023/07/27 21:09:06;;;;;;;0.60;0.60;;;;;;;-145.68;100.00;72774.31;10210219;29;20231;-67
2023/07/27 21:14:06;;;;;;;0.57;0.57;;;;;;;-145.68;100.00;72768.31;10211112;29;20314;-67
2023/07/27 21:19:06;;;;;;;0.60;0.60;;;;;;;-145.68;100.00;72768.31;10210649;29;20246;-67
2023/07/27 21:24:07;;;;;;;0.60;0.60;;;;;;;-145.68;100.00;72752.31;10211184;29;20215;-66
2023/07/27 21:29:07;;;;;;;2.05;0.57;;;;;;;-145.68;100.00;72758.31;10208664;29;20239;-67
2023/07/27 21:34:10;;;;;;;0.45;0.45;;;;;;;-145.68;100.00;72750.31;10208862;29;20254;-67
2023/07/27 21:39:15;;;;;;;0.57;0.50;;;;;;;-145.68;100.00;72750.31;10207986;29;20231;-67
2023/07/27 21:44:16;;;;;;;0.50;0.50;;;;;;;-145.68;100.00;72738.31;10209185;29;20258;-67
2023/07/27 21:49:16;;;;;;;1.92;0.50;;;;;;;-145.68;100.00;72744.31;10209076;29;20323;-67
2023/07/27 21:54:16;;;;;;;1.33;0.52;;;;;;;-145.68;100.00;72742.31;10209800;29;20242;-67
2023/07/27 21:59:17;;;;;;;0.50;0.50;;;;;;;-145.68;100.00;72730.34;10207633;29;20240;-67
2023/07/27 22:04:17;;;;;;;0.50;0.50;;;;;;;-145.68;100.00;72728.34;10209542;29;20220;-68
2023/07/27 22:09:18;;;;;;;0.55;0.55;;;;;;;-145.68;100.00;72714.34;10208024;29;20259;-68
2023/07/27 22:14:18;;;;;;;1.08;0.65;;;;;;;-145.68;100.00;72700.34;10209335;29;20231;-68
2023/07/27 22:19:18;;;;;;;0.52;0.50;;;;;;;-145.68;100.00;72718.34;10209489;29;20262;-67
2023/07/27 22:24:19;;;;;;;1.10;0.40;;;;;;;-145.68;100.00;72714.34;10210129;29;20223;-67
2023/07/27 22:29:19;;;;;;;1.05;0.60;;;;;;;-145.68;100.00;72734.31;10208503;29;20227;-67
2023/07/27 22:34:19;;;;;;;1.38;0.45;;;;;;;-145.68;100.00;72740.31;10209296;29;20246;-67
2023/07/27 22:39:20;;;;;;;0.85;0.52;;;;;;;-145.68;100.00;72736.31;10209125;29;20307;-67
2023/07/27 22:44:20;;;;;;;0.85;0.50;;;;;;;-145.68;100.00;72724.34;10209221;29;20232;-67
2023/07/27 22:49:21;;;;;;;2.00;0.52;;;;;;;-145.68;100.00;72708.34;10208495;29;20728;-68